Time;durP1;ratioP1;P1;durP2;ratioP2;P2;SDS_P1;SDS_P2;PMS_P1;PMS_P2;Temp;Humidity;BMP_temperature;BMP_pressure;BME280_temperature;BME280_humidity;BME280_pressure;Samples;Min_cycle;Max_cycle;Signal;HPM_P1;HPM_P2
2022/08/31 00:04:42;;;;;;;8.23;3.60;;;24.40;60.70;;;;;;5024960;28;20697;-61
2022/08/31 00:07:07;;;;;;;7.05;3.38;;;24.40;60.60;;;;;;5020096;28;20022;-61
2022/08/31 00:09:33;;;;;;;7.00;3.30;;;24.40;60.80;;;;;;5028803;28;20623;-61
2022/08/31 00:11:59;;;;;;;7.20;3.03;;;24.40;60.70;;;;;;5030977;28;20401;-61
2022/08/31 00:14:25;;;;;;;6.95;3.50;;;24.40;60.70;;;;;;5028099;28;20061;-61
2022/08/31 00:16:51;;;;;;;8.18;3.47;;;24.40;60.70;;;;;;5029562;28;20048;-61
2022/08/31 00:19:16;;;;;;;7.25;3.63;;;24.40;60.90;;;;;;5028074;28;20041;-61
2022/08/31 00:21:42;;;;;;;7.88;3.17;;;24.40;60.80;;;;;;5029622;28;20041;-61
2022/08/31 00:24:08;;;;;;;8.40;3.90;;;24.40;60.90;;;;;;5029359;28;20105;-61
2022/08/31 00:26:34;;;;;;;6.97;3.42;;;24.40;60.90;;;;;;5030528;28;20044;-61
2022/08/31 00:28:59;;;;;;;7.32;3.63;;;24.40;60.90;;;;;;5029375;28;20116;-61
2022/08/31 00:31:25;;;;;;;7.07;3.50;;;24.40;60.90;;;;;;5030101;28;20085;-61
2022/08/31 00:33:51;;;;;;;6.57;3.50;;;24.30;60.90;;;;;;5029483;28;20129;-62
2022/08/31 00:36:19;;;;;;;7.45;3.47;;;24.30;60.90;;;;;;5029336;28;20037;-61
2022/08/31 00:38:45;;;;;;;6.35;3.30;;;24.30;61.00;;;;;;5028456;28;20104;-61
2022/08/31 00:41:10;;;;;;;6.70;3.40;;;24.30;60.90;;;;;;5028618;28;20041;-61
2022/08/31 00:43:48;;;;;;;7.90;3.28;;;24.30;60.90;;;;;;5028236;28;20030;-61
2022/08/31 00:46:16;;;;;;;5.45;3.28;;;24.30;60.90;;;;;;5028111;28;20171;-61
2022/08/31 00:48:45;;;;;;;6.85;3.55;;;24.30;61.00;;;;;;5030253;28;20013;-61
2022/08/31 00:51:11;;;;;;;7.13;3.45;;;24.30;61.00;;;;;;5028108;28;20022;-61
2022/08/31 00:53:36;;;;;;;6.78;3.40;;;24.30;61.00;;;;;;5011751;28;20124;-61
2022/08/31 00:56:02;;;;;;;6.90;3.70;;;24.30;61.00;;;;;;5010809;28;20038;-61
2022/08/31 00:58:28;;;;;;;8.18;3.63;;;24.30;61.00;;;;;;5026831;28;20032;-61
2022/08/31 01:00:54;;;;;;;6.22;3.10;;;24.30;61.00;;;;;;5027737;28;20029;-61
2022/08/31 01:03:21;;;;;;;7.43;3.83;;;24.30;61.00;;;;;;5028573;28;20049;-62
2022/08/31 01:05:47;;;;;;;7.22;3.35;;;24.30;61.10;;;;;;5011607;28;20495;-61
2022/08/31 01:08:13;;;;;;;7.65;3.38;;;24.30;61.00;;;;;;5058495;28;20112;-61
2022/08/31 01:10:39;;;;;;;7.30;3.00;;;24.30;61.00;;;;;;5028413;28;20543;-61
2022/08/31 01:13:05;;;;;;;6.75;3.35;;;24.30;61.00;;;;;;5027026;28;20033;-61
2022/08/31 01:15:31;;;;;;;7.00;3.40;;;24.30;60.90;;;;;;5027952;28;20021;-61
2022/08/31 01:18:02;;;;;;;8.05;3.63;;;24.30;61.10;;;;;;5025786;28;20037;-61
2022/08/31 01:20:31;;;;;;;6.63;3.50;;;24.30;61.10;;;;;;5027141;28;20025;-61
2022/08/31 01:23:11;;;;;;;7.68;3.80;;;24.20;61.00;;;;;;5027897;28;20061;-61
2022/08/31 01:25:38;;;;;;;6.30;3.17;;;24.20;61.00;;;;;;5027974;28;20025;-61
2022/08/31 01:28:05;;;;;;;7.45;3.45;;;24.20;61.00;;;;;;5029099;28;20053;-61
2022/08/31 01:30:30;;;;;;;5.95;3.38;;;24.20;61.10;;;;;;5027762;28;20022;-61
2022/08/31 01:32:56;;;;;;;5.82;3.08;;;24.20;60.90;;;;;;5028332;28;20032;-61
2022/08/31 01:35:22;;;;;;;7.20;3.20;;;24.20;60.90;;;;;;5027761;28;20452;-62
2022/08/31 01:37:47;;;;;;;6.45;3.20;;;24.20;61.00;;;;;;5026809;28;20104;-61
2022/08/31 01:40:13;;;;;;;6.75;3.20;;;24.20;61.00;;;;;;5026718;28;20091;-61
2022/08/31 01:42:39;;;;;;;6.38;3.10;;;24.20;61.00;;;;;;5029142;28;20033;-61
2022/08/31 01:45:05;;;;;;;6.25;3.10;;;24.20;61.00;;;;;;5028452;28;20028;-61
2022/08/31 01:47:30;;;;;;;6.63;3.15;;;24.20;60.90;;;;;;5025702;28;20469;-61
2022/08/31 01:49:56;;;;;;;5.82;3.05;;;24.10;61.00;;;;;;5028936;28;20045;-61
2022/08/31 01:52:22;;;;;;;6.78;3.40;;;24.10;61.00;;;;;;5027944;28;20068;-61
2022/08/31 01:54:47;;;;;;;5.85;2.95;;;24.10;61.00;;;;;;5026851;28;20046;-61
2022/08/31 01:57:14;;;;;;;6.75;3.22;;;24.10;61.00;;;;;;5028570;28;20401;-61
2022/08/31 01:59:40;;;;;;;6.38;3.30;;;24.10;61.00;;;;;;5028267;28;20033;-61
2022/08/31 02:02:06;;;;;;;6.05;3.08;;;24.10;61.10;;;;;;5027309;28;20039;-61
2022/08/31 02:04:32;;;;;;;6.40;3.10;;;24.10;61.00;;;;;;5026709;28;20034;-61
2022/08/31 02:06:58;;;;;;;7.25;3.45;;;24.10;61.00;;;;;;5028576;28;20109;-61
2022/08/31 02:09:24;;;;;;;6.93;3.25;;;24.10;61.00;;;;;;5027863;28;20033;-61
2022/08/31 02:11:50;;;;;;;6.57;3.10;;;24.10;61.00;;;;;;5028910;28;20029;-61
2022/08/31 02:14:17;;;;;;;6.40;2.80;;;24.10;61.10;;;;;;5028799;28;20666;-61
2022/08/31 02:16:43;;;;;;;6.40;3.38;;;24.10;61.10;;;;;;5026681;28;20053;-61
2022/08/31 02:19:08;;;;;;;6.97;3.28;;;24.10;61.10;;;;;;5026333;28;20076;-61
2022/08/31 02:21:34;;;;;;;6.55;3.05;;;24.10;61.10;;;;;;5026398;28;20033;-61
2022/08/31 02:24:00;;;;;;;6.50;3.20;;;24.10;61.10;;;;;;5026872;28;20112;-61
2022/08/31 02:26:25;;;;;;;6.45;3.10;;;24.10;61.10;;;;;;5028751;28;20616;-61
2022/08/31 02:28:51;;;;;;;6.85;3.30;;;24.10;61.10;;;;;;5026964;28;20474;-61
2022/08/31 02:31:17;;;;;;;5.90;2.97;;;24.10;61.10;;;;;;5027861;28;20052;-61
2022/08/31 02:33:43;;;;;;;6.85;3.30;;;24.10;61.10;;;;;;5027191;28;20083;-62
2022/08/31 02:36:09;;;;;;;6.75;3.33;;;24.00;61.10;;;;;;5026223;28;20024;-61
2022/08/31 02:38:35;;;;;;;5.68;3.13;;;24.00;61.20;;;;;;5027113;28;20033;-61
2022/08/31 02:41:01;;;;;;;6.00;3.08;;;24.00;61.10;;;;;;5025051;28;20029;-61
2022/08/31 02:43:26;;;;;;;7.07;3.30;;;24.10;61.20;;;;;;5026448;28;20087;-61
2022/08/31 02:45:52;;;;;;;5.85;2.92;;;24.00;61.10;;;;;;5027702;28;20037;-61
2022/08/31 02:48:18;;;;;;;7.75;3.20;;;24.00;61.10;;;;;;5028134;28;20113;-61
2022/08/31 02:50:47;;;;;;;6.25;3.03;;;24.00;61.20;;;;;;5027867;28;20049;-61
2022/08/31 02:53:13;;;;;;;5.82;3.00;;;24.00;61.20;;;;;;5025516;28;20566;-61
2022/08/31 02:55:39;;;;;;;5.75;2.80;;;24.00;61.20;;;;;;5025706;28;20068;-61
2022/08/31 02:58:04;;;;;;;5.90;3.00;;;24.00;61.20;;;;;;5024612;28;20056;-61
2022/08/31 03:00:31;;;;;;;6.40;2.75;;;24.00;61.20;;;;;;5027033;28;20025;-61
2022/08/31 03:02:56;;;;;;;5.97;3.00;;;24.00;61.20;;;;;;5025951;28;20676;-61
2022/08/31 03:05:22;;;;;;;6.15;3.38;;;24.00;61.30;;;;;;5028171;28;20120;-61
2022/08/31 03:07:51;;;;;;;7.43;3.05;;;24.00;61.20;;;;;;5027182;28;20112;-61
2022/08/31 03:10:18;;;;;;;6.60;3.08;;;24.00;61.20;;;;;;5024959;28;20041;-62
2022/08/31 03:12:44;;;;;;;5.95;3.13;;;24.00;61.30;;;;;;5025768;28;20025;-61
2022/08/31 03:15:10;;;;;;;5.53;3.10;;;24.00;61.20;;;;;;5027715;28;20034;-61
2022/08/31 03:17:35;;;;;;;6.05;3.03;;;24.00;61.30;;;;;;5026997;28;20033;-61
2022/08/31 03:20:04;;;;;;;6.85;3.05;;;24.00;61.30;;;;;;5027576;28;20034;-61
2022/08/31 03:22:30;;;;;;;5.47;2.80;;;24.00;61.20;;;;;;5025548;28;20465;-62
2022/08/31 03:24:56;;;;;;;5.43;2.95;;;24.00;61.30;;;;;;5027289;28;20108;-61
2022/08/31 03:27:23;;;;;;;5.22;2.70;;;23.90;61.30;;;;;;5022183;28;20041;-61
2022/08/31 03:29:49;;;;;;;6.63;2.92;;;24.00;61.30;;;;;;5026981;28;20577;-61
2022/08/31 03:32:15;;;;;;;5.32;3.00;;;24.00;61.30;;;;;;5025411;28;20542;-61
2022/08/31 03:34:41;;;;;;;6.70;3.17;;;24.00;61.30;;;;;;5027096;28;20112;-61
2022/08/31 03:37:06;;;;;;;6.57;3.17;;;23.90;61.30;;;;;;5025135;28;20033;-61
2022/08/31 03:39:32;;;;;;;6.20;3.15;;;23.90;61.30;;;;;;5023066;28;20056;-61
2022/08/31 03:41:57;;;;;;;5.35;2.90;;;23.90;61.30;;;;;;5024420;28;20037;-61
2022/08/31 03:44:23;;;;;;;6.72;3.00;;;23.90;61.30;;;;;;5027593;28;20037;-61
2022/08/31 03:46:49;;;;;;;5.95;3.00;;;23.90;61.30;;;;;;5030521;28;20030;-61
2022/08/31 03:49:17;;;;;;;5.63;2.95;;;23.90;61.30;;;;;;5030207;28;20030;-61
2022/08/31 03:51:44;;;;;;;5.32;2.95;;;23.90;61.30;;;;;;5031436;28;20069;-61
2022/08/31 03:54:10;;;;;;;6.20;2.90;;;23.90;61.30;;;;;;5030055;28;20509;-61
2022/08/31 03:56:35;;;;;;;4.97;2.83;;;23.90;61.30;;;;;;5030250;28;20028;-61
2022/08/31 03:59:01;;;;;;;7.47;3.03;;;23.90;61.40;;;;;;5030396;28;21556;-61
2022/08/31 04:01:27;;;;;;;6.50;2.90;;;23.90;61.40;;;;;;5028467;28;20123;-61
2022/08/31 04:03:52;;;;;;;6.22;3.10;;;23.90;61.30;;;;;;5029907;28;20030;-61
2022/08/31 04:06:18;;;;;;;5.82;3.00;;;23.90;61.40;;;;;;5029327;28;20030;-62
2022/08/31 04:08:43;;;;;;;5.68;2.80;;;23.90;61.40;;;;;;5027177;28;20026;-61
2022/08/31 04:11:11;;;;;;;6.00;3.10;;;23.80;61.30;;;;;;5027981;28;20096;-61
2022/08/31 04:13:37;;;;;;;6.45;3.10;;;23.90;61.40;;;;;;5029725;28;20079;-61
2022/08/31 04:16:06;;;;;;;5.60;2.80;;;23.80;61.30;;;;;;5028901;28;20104;-61
2022/08/31 04:18:32;;;;;;;5.63;2.70;;;23.90;61.40;;;;;;5029707;28;20486;-61
2022/08/31 04:20:57;;;;;;;6.20;2.83;;;23.80;61.40;;;;;;5029619;28;20072;-61
2022/08/31 04:23:28;;;;;;;5.57;3.00;;;23.80;61.40;;;;;;5029692;28;20128;-62
2022/08/31 04:25:53;;;;;;;5.68;2.80;;;23.80;61.40;;;;;;5026398;28;20441;-61
2022/08/31 04:28:19;;;;;;;5.05;2.67;;;23.90;61.40;;;;;;5026981;28;20041;-62
2022/08/31 04:30:47;;;;;;;5.80;3.28;;;23.80;61.40;;;;;;5027184;28;20029;-61
2022/08/31 04:33:12;;;;;;;5.93;2.85;;;23.80;61.50;;;;;;5026752;28;20520;-61
2022/08/31 04:35:39;;;;;;;5.75;3.00;;;23.80;61.40;;;;;;5026037;28;20021;-62
2022/08/31 04:38:05;;;;;;;5.50;2.80;;;23.80;61.40;;;;;;5029944;28;20029;-61
2022/08/31 04:40:31;;;;;;;5.03;2.70;;;23.80;61.40;;;;;;5028283;28;20060;-62
2022/08/31 04:42:58;;;;;;;7.68;3.00;;;23.80;61.50;;;;;;5026289;28;20041;-62
2022/08/31 04:45:24;;;;;;;5.18;2.60;;;23.80;61.40;;;;;;5024234;28;20022;-62
2022/08/31 04:47:49;;;;;;;5.30;2.63;;;23.80;61.40;;;;;;5027988;28;20056;-61
2022/08/31 04:50:15;;;;;;;4.82;2.50;;;23.80;61.50;;;;;;5029461;28;20109;-62
2022/08/31 04:52:42;;;;;;;7.40;3.20;;;23.80;61.50;;;;;;5029562;28;20414;-61
2022/08/31 04:55:08;;;;;;;4.53;2.50;;;23.80;61.50;;;;;;5025462;28;20092;-61
2022/08/31 04:57:34;;;;;;;5.88;2.80;;;23.80;61.60;;;;;;5021228;28;20513;-61
2022/08/31 05:00:01;;;;;;;5.93;2.80;;;23.80;61.50;;;;;;5027163;28;20029;-61
2022/08/31 05:02:27;;;;;;;4.72;2.80;;;23.80;61.60;;;;;;5024089;28;20030;-62
2022/08/31 05:04:52;;;;;;;5.78;2.33;;;23.80;61.70;;;;;;5026190;28;20043;-61
2022/08/31 05:07:18;;;;;;;5.53;2.80;;;23.80;61.60;;;;;;5023151;28;20410;-61
2022/08/31 05:09:44;;;;;;;4.85;2.60;;;23.80;61.70;;;;;;5028475;28;20386;-61
2022/08/31 05:12:09;;;;;;;6.53;2.80;;;23.70;61.70;;;;;;5022422;28;20567;-62
2022/08/31 05:14:38;;;;;;;4.72;2.30;;;23.80;61.80;;;;;;5027832;28;20474;-62
2022/08/31 05:17:05;;;;;;;7.43;2.78;;;23.80;61.80;;;;;;5027316;28;20049;-62
2022/08/31 05:19:30;;;;;;;5.70;2.58;;;23.80;61.90;;;;;;5028954;28;20109;-62
2022/08/31 05:21:56;;;;;;;5.60;2.70;;;23.80;62.00;;;;;;5026772;28;20124;-62
2022/08/31 05:24:22;;;;;;;4.63;2.53;;;23.80;62.20;;;;;;5023111;28;20028;-62
2022/08/31 05:26:49;;;;;;;4.72;2.63;;;23.80;62.20;;;;;;5025973;28;20022;-62
2022/08/31 05:29:17;;;;;;;6.13;2.83;;;23.80;62.10;;;;;;5025328;28;20026;-62
2022/08/31 05:31:43;;;;;;;6.28;2.80;;;23.80;62.40;;;;;;5025673;28;20055;-62
2022/08/31 05:34:11;;;;;;;5.85;2.80;;;23.80;62.00;;;;;;5028583;28;20029;-62
2022/08/31 05:36:37;;;;;;;5.90;2.50;;;23.80;61.90;;;;;;5029051;28;20116;-62
2022/08/31 05:39:03;;;;;;;6.03;2.60;;;23.80;62.10;;;;;;5028077;28;20017;-62
2022/08/31 05:41:29;;;;;;;6.22;2.85;;;23.80;62.00;;;;;;5029047;28;20037;-62
2022/08/31 05:43:55;;;;;;;5.55;2.63;;;23.80;62.00;;;;;;5029767;28;20695;-62
2022/08/31 05:46:20;;;;;;;6.22;2.70;;;23.80;62.10;;;;;;5030398;28;20113;-62
2022/08/31 05:48:46;;;;;;;6.25;2.70;;;23.80;62.10;;;;;;5028613;28;20390;-62
2022/08/31 05:51:14;;;;;;;5.82;2.80;;;23.80;62.10;;;;;;5029455;28;20127;-62
2022/08/31 05:53:40;;;;;;;6.43;2.75;;;23.70;62.00;;;;;;5028133;28;20111;-62
2022/08/31 05:56:09;;;;;;;6.90;2.80;;;23.80;62.10;;;;;;5029150;28;20029;-62
2022/08/31 05:58:35;;;;;;;6.53;2.88;;;23.70;62.00;;;;;;5026939;28;20030;-62
2022/08/31 06:01:01;;;;;;;5.30;2.42;;;23.70;62.00;;;;;;5028746;28;20032;-62
2022/08/31 06:03:27;;;;;;;5.30;2.53;;;23.70;62.00;;;;;;5029319;28;20025;-62
2022/08/31 06:05:53;;;;;;;6.35;2.83;;;23.70;62.10;;;;;;5025929;28;20022;-62
2022/08/31 06:08:19;;;;;;;6.93;2.92;;;23.70;62.10;;;;;;5028520;28;20541;-62
2022/08/31 06:10:45;;;;;;;6.35;2.88;;;23.70;62.10;;;;;;5028752;28;20060;-62
2022/08/31 06:13:17;;;;;;;6.50;2.50;;;23.70;62.10;;;;;;5027194;28;20037;-62
2022/08/31 06:15:43;;;;;;;7.03;2.60;;;23.70;62.10;;;;;;5023556;28;20499;-62
2022/08/31 06:18:09;;;;;;;7.15;3.05;;;23.70;62.10;;;;;;5009717;28;20049;-62
2022/08/31 06:20:38;;;;;;;6.07;2.60;;;23.70;62.10;;;;;;5027398;28;20477;-62
2022/08/31 06:23:06;;;;;;;7.00;2.72;;;23.70;62.10;;;;;;5024568;28;20041;-62
2022/08/31 06:25:32;;;;;;;4.75;2.58;;;23.70;62.20;;;;;;5024789;28;20029;-62
2022/08/31 06:27:59;;;;;;;5.70;2.80;;;23.70;62.10;;;;;;5027436;28;20391;-62
2022/08/31 06:30:27;;;;;;;6.78;2.67;;;23.70;62.20;;;;;;5024329;28;20680;-62
2022/08/31 06:32:54;;;;;;;6.47;2.80;;;23.70;62.10;;;;;;5028426;28;22462;-62
2022/08/31 06:35:19;;;;;;;7.75;2.65;;;23.70;62.10;;;;;;5029737;28;20021;-62
2022/08/31 06:37:45;;;;;;;6.07;2.72;;;23.70;62.10;;;;;;5028460;28;20017;-62
2022/08/31 06:40:11;;;;;;;5.80;2.65;;;23.70;62.20;;;;;;5022902;28;20102;-62
2022/08/31 06:42:36;;;;;;;5.85;2.95;;;23.60;62.10;;;;;;5027212;28;20492;-62
2022/08/31 06:45:06;;;;;;;6.82;2.40;;;23.60;62.10;;;;;;5027755;28;20048;-62
2022/08/31 06:47:32;;;;;;;5.53;2.90;;;23.60;62.10;;;;;;5028314;28;20034;-62
2022/08/31 06:49:58;;;;;;;6.95;2.70;;;23.60;62.10;;;;;;5027326;28;20033;-62
2022/08/31 06:52:25;;;;;;;6.95;2.40;;;23.60;62.20;;;;;;5030071;28;20033;-62
2022/08/31 06:54:50;;;;;;;6.90;2.60;;;23.60;62.10;;;;;;5026583;28;20045;-62
2022/08/31 06:57:16;;;;;;;6.47;2.50;;;23.60;62.10;;;;;;5027188;28;20029;-62
2022/08/31 06:59:42;;;;;;;5.70;2.70;;;23.60;62.10;;;;;;5025478;28;20075;-62
2022/08/31 07:02:07;;;;;;;6.00;2.53;;;23.60;62.10;;;;;;5027056;28;20037;-62
2022/08/31 07:04:34;;;;;;;6.47;2.70;;;23.60;62.20;;;;;;5027142;28;20116;-62
2022/08/31 07:07:00;;;;;;;6.43;2.42;;;23.60;62.20;;;;;;5027220;28;20021;-62
2022/08/31 07:09:26;;;;;;;7.15;2.90;;;23.60;62.10;;;;;;5026771;28;20477;-62
2022/08/31 07:11:52;;;;;;;7.13;2.40;;;23.60;62.10;;;;;;5027147;28;20088;-62
2022/08/31 07:14:22;;;;;;;7.35;2.80;;;23.60;62.20;;;;;;5026228;28;20040;-62
2022/08/31 07:16:48;;;;;;;7.00;2.80;;;23.60;62.20;;;;;;5026862;28;20053;-62
2022/08/31 07:19:14;;;;;;;5.03;2.50;;;23.60;62.20;;;;;;5027119;28;20047;-62
2022/08/31 07:21:42;;;;;;;6.65;2.80;;;23.60;62.20;;;;;;5024765;28;20384;-62
2022/08/31 07:24:09;;;;;;;6.00;2.40;;;23.60;62.20;;;;;;5026133;28;20030;-62
2022/08/31 07:26:36;;;;;;;5.32;2.70;;;23.60;62.20;;;;;;5026970;28;20028;-62
2022/08/31 07:29:03;;;;;;;7.75;3.10;;;23.60;62.20;;;;;;5026193;28;20025;-62
2022/08/31 07:31:45;;;;;;;5.00;2.40;;;23.60;62.30;;;;;;5018132;28;20574;-62
2022/08/31 07:34:24;;;;;;;7.38;2.80;;;23.60;62.20;;;;;;5022602;28;20030;-62
2022/08/31 07:42:23;;;;;;;5.38;2.63;;;23.60;62.50;;;;;;5025085;28;20098;-61
2022/08/31 07:44:49;;;;;;;4.85;2.58;;;23.60;62.40;;;;;;5028630;28;20024;-61
2022/08/31 07:47:19;;;;;;;7.68;2.80;;;23.60;62.50;;;;;;5030784;28;20021;-62
2022/08/31 07:49:49;;;;;;;5.47;2.58;;;23.60;63.50;;;;;;5032983;28;20022;-62
2022/08/31 07:52:22;;;;;;;6.78;2.60;;;23.60;62.70;;;;;;5022474;28;21140;-62
2022/08/31 07:54:53;;;;;;;4.18;2.30;;;23.60;62.70;;;;;;5025912;28;20209;-62
2022/08/31 07:57:20;;;;;;;6.35;2.65;;;23.60;62.60;;;;;;5032339;28;20120;-61
2022/08/31 07:59:46;;;;;;;7.72;2.80;;;23.60;62.70;;;;;;5025305;28;20029;-61
2022/08/31 08:02:13;;;;;;;6.90;2.75;;;23.60;62.90;;;;;;5026869;28;20410;-62
2022/08/31 08:04:42;;;;;;;6.97;2.80;;;23.60;62.70;;;;;;5024878;28;20083;-64
2022/08/31 08:07:10;;;;;;;6.25;2.50;;;23.60;62.50;;;;;;5023054;28;20029;-62
2022/08/31 08:09:35;;;;;;;6.32;2.70;;;23.70;62.80;;;;;;5022300;28;20041;-62
2022/08/31 08:12:07;;;;;;;4.60;2.40;;;23.70;62.50;;;;;;5024100;28;20068;-61
2022/08/31 08:14:34;;;;;;;8.13;2.60;;;23.60;62.40;;;;;;5026486;28;20018;-62
2022/08/31 08:17:01;;;;;;;6.07;2.50;;;23.60;63.50;;;;;;5025025;28;20061;-62
2022/08/31 08:19:26;;;;;;;5.13;2.50;;;23.60;62.50;;;;;;5026576;28;20033;-62
2022/08/31 08:21:52;;;;;;;6.45;2.40;;;23.70;62.60;;;;;;5025365;28;20453;-62
2022/08/31 08:24:18;;;;;;;4.35;2.45;;;23.70;62.50;;;;;;5025282;28;20026;-62
2022/08/31 08:26:45;;;;;;;5.63;2.20;;;23.70;62.60;;;;;;5023174;28;20029;-61
2022/08/31 08:29:10;;;;;;;4.88;2.60;;;23.70;62.60;;;;;;5022842;28;20032;-61
2022/08/31 08:31:36;;;;;;;5.20;2.30;;;23.60;62.50;;;;;;5029463;28;20025;-62
2022/08/31 08:34:02;;;;;;;4.60;2.40;;;23.60;62.60;;;;;;5029869;28;20454;-62
2022/08/31 08:36:31;;;;;;;6.65;2.60;;;23.70;62.50;;;;;;5026780;28;20033;-62
2022/08/31 08:38:56;;;;;;;5.80;2.50;;;23.60;62.40;;;;;;5027048;28;20044;-62
2022/08/31 08:41:24;;;;;;;4.85;2.40;;;23.70;62.50;;;;;;5030935;28;20033;-62
2022/08/31 08:43:54;;;;;;;5.25;2.45;;;23.70;62.40;;;;;;5027640;28;20050;-62
2022/08/31 08:46:27;;;;;;;5.97;2.60;;;23.70;62.40;;;;;;5025146;28;20195;-62
2022/08/31 08:48:53;;;;;;;6.82;2.40;;;23.70;62.40;;;;;;5029806;28;20022;-62
2022/08/31 08:51:19;;;;;;;6.25;2.40;;;23.70;62.40;;;;;;5029013;28;20273;-62
2022/08/31 08:53:45;;;;;;;6.95;2.30;;;23.70;62.40;;;;;;5026868;28;20569;-62
2022/08/31 08:56:11;;;;;;;8.10;2.70;;;23.70;62.30;;;;;;5007929;28;20083;-62
2022/08/31 08:58:42;;;;;;;8.73;2.60;;;23.70;62.50;;;;;;5023700;28;20026;-62
2022/08/31 09:01:10;;;;;;;6.30;2.50;;;23.70;62.40;;;;;;5020691;28;20029;-62
2022/08/31 09:03:48;;;;;;;7.82;2.65;;;23.70;62.30;;;;;;5028044;28;20033;-62
2022/08/31 09:06:35;;;;;;;6.53;2.63;;;23.80;62.70;;;;;;5026597;28;20061;-62
2022/08/31 09:09:27;;;;;;;9.40;3.15;;;23.80;62.60;;;;;;5026216;28;20038;-62
2022/08/31 09:12:21;;;;;;;8.68;2.65;;;23.80;62.30;;;;;;5025301;28;20084;-62
2022/08/31 09:15:27;;;;;;;9.25;3.13;;;23.80;62.50;;;;;;5020682;28;20052;-62
2022/08/31 09:18:20;;;;;;;5.88;2.80;;;23.80;62.40;;;;;;5017334;28;20037;-62
2022/08/31 09:21:04;;;;;;;9.77;3.08;;;23.80;62.40;;;;;;5027112;28;20547;-62
2022/08/31 09:23:31;;;;;;;8.85;3.17;;;23.80;62.40;;;;;;5028198;28;20033;-62
2022/08/31 09:25:57;;;;;;;9.75;3.28;;;23.80;62.60;;;;;;5022918;28;20124;-62
2022/08/31 09:28:42;;;;;;;9.80;3.15;;;23.80;62.50;;;;;;5024953;28;20034;-62
2022/08/31 09:31:07;;;;;;;11.88;3.30;;;23.80;63.50;;;;;;5024370;28;20065;-62
2022/08/31 09:33:36;;;;;;;14.45;3.53;;;23.80;63.50;;;;;;5027691;28;20068;-63
2022/08/31 09:36:21;;;;;;;10.88;3.60;;;23.90;62.30;;;;;;5021179;28;20099;-61
2022/08/31 09:38:47;;;;;;;10.57;3.38;;;23.90;62.20;;;;;;5025884;28;20022;-61
2022/08/31 09:41:22;;;;;;;11.52;3.38;;;23.90;62.10;;;;;;5023638;28;20034;-63
2022/08/31 09:43:47;;;;;;;10.60;3.25;;;23.90;62.20;;;;;;5023570;28;20030;-62
2022/08/31 09:46:29;;;;;;;10.98;3.72;;;23.90;62.10;;;;;;5024242;28;20033;-62
2022/08/31 09:48:58;;;;;;;9.82;3.40;;;23.90;62.10;;;;;;5024698;28;20040;-62
2022/08/31 09:51:29;;;;;;;10.25;3.58;;;23.90;62.10;;;;;;5023266;28;20033;-61
2022/08/31 09:56:56;;;;;;;12.95;3.80;;;23.90;62.20;;;;;;5026988;28;20036;-63
2022/08/31 09:59:42;;;;;;;9.80;3.33;;;23.90;62.00;;;;;;5021769;28;20032;-62
2022/08/31 10:02:28;;;;;;;12.95;3.75;;;23.90;61.90;;;;;;5026293;28;20091;-62
2022/08/31 10:05:05;;;;;;;12.43;3.30;;;24.00;61.90;;;;;;5025002;28;20057;-62
2022/08/31 10:07:34;;;;;;;10.77;3.75;;;24.00;63.20;;;;;;5024471;28;20049;-62
2022/08/31 10:10:09;;;;;;;10.80;3.45;;;24.00;62.20;;;;;;5027658;28;20021;-62
2022/08/31 10:12:49;;;;;;;12.60;3.78;;;24.00;63.10;;;;;;5028688;28;20107;-62
2022/08/31 10:15:34;;;;;;;12.98;3.80;;;24.00;62.40;;;;;;5011965;28;20052;-62
2022/08/31 10:18:10;;;;;;;13.48;3.78;;;23.90;62.20;;;;;;5026136;28;20021;-62
2022/08/31 10:20:38;;;;;;;10.35;3.65;;;24.00;62.40;;;;;;5018335;28;20603;-62
2022/08/31 10:23:26;;;;;;;13.40;3.67;;;24.00;62.10;;;;;;5025733;28;20048;-62
2022/08/31 10:26:12;;;;;;;12.75;3.97;;;24.00;62.20;;;;;;5024956;28;20075;-62
2022/08/31 10:28:50;;;;;;;11.15;4.00;;;24.00;62.10;;;;;;5027420;28;20116;-62
2022/08/31 10:31:41;;;;;;;13.45;3.88;;;24.00;62.10;;;;;;5025506;28;20150;-62
2022/08/31 10:37:16;;;;;;;14.27;4.28;;;24.10;62.10;;;;;;5004506;28;20165;-62
2022/08/31 10:39:54;;;;;;;11.10;3.70;;;24.10;62.00;;;;;;5006463;28;20108;-62
2022/08/31 10:42:25;;;;;;;14.98;3.72;;;24.10;61.90;;;;;;5002032;28;20127;-62
2022/08/31 10:44:56;;;;;;;13.77;4.10;;;24.10;62.00;;;;;;5003534;28;20041;-62
2022/08/31 10:47:27;;;;;;;10.43;3.47;;;24.10;62.00;;;;;;5016671;28;20029;-62
2022/08/31 10:49:54;;;;;;;12.75;3.60;;;24.10;61.90;;;;;;5018448;28;20091;-62
2022/08/31 10:52:31;;;;;;;11.10;3.95;;;24.10;61.90;;;;;;5017642;28;20065;-62
2022/08/31 10:55:06;;;;;;;11.18;3.90;;;24.10;61.90;;;;;;5018369;28;20049;-62
2022/08/31 10:57:43;;;;;;;10.98;3.55;;;24.10;61.90;;;;;;5002459;28;20038;-62
2022/08/31 11:00:44;;;;;;;12.25;3.88;;;24.10;61.70;;;;;;5017288;28;22922;-62
2022/08/31 11:03:21;;;;;;;12.57;4.28;;;24.20;62.00;;;;;;4989278;28;20045;-62
2022/08/31 11:05:53;;;;;;;11.40;3.42;;;24.10;62.00;;;;;;5003116;28;20033;-62
2022/08/31 11:08:57;;;;;;;11.63;3.75;;;24.20;62.00;;;;;;5002767;28;20034;-62
2022/08/31 11:11:45;;;;;;;10.45;3.53;;;24.20;62.00;;;;;;5013324;28;20048;-62
2022/08/31 11:14:42;;;;;;;9.70;3.25;;;24.30;62.00;;;;;;5025369;28;20052;-62
2022/08/31 11:17:26;;;;;;;11.65;3.80;;;24.30;61.40;;;;;;5022640;28;20042;-62
2022/08/31 11:20:10;;;;;;;13.23;3.65;;;24.30;62.00;;;;;;5024540;28;20397;-62
2022/08/31 11:22:39;;;;;;;10.65;3.50;;;24.30;62.00;;;;;;5027416;28;20516;-62
2022/08/31 11:25:23;;;;;;;14.00;3.60;;;24.30;62.00;;;;;;5025249;28;20041;-62
2022/08/31 11:27:57;;;;;;;11.15;3.80;;;24.20;61.80;;;;;;5024821;28;20397;-62
2022/08/31 11:30:27;;;;;;;12.75;4.03;;;24.30;61.70;;;;;;5036925;28;20028;-62
2022/08/31 11:32:59;;;;;;;12.65;3.50;;;24.30;62.70;;;;;;5039766;28;20033;-62
2022/08/31 11:36:10;;;;;;;10.15;3.15;;;24.30;61.70;;;;;;5026480;28;20025;-62
2022/08/31 11:38:55;;;;;;;10.32;3.20;;;24.30;61.70;;;;;;4984742;28;20056;-62
2022/08/31 11:41:30;;;;;;;;;;;24.40;61.50;;;;;;4982251;28;20046;-62
2022/08/31 11:43:56;;;;;;;10.38;3.65;;;24.40;61.30;;;;;;4982157;28;19976;-62
2022/08/31 11:46:24;;;;;;;9.90;3.15;;;24.40;61.40;;;;;;4984284;28;20082;-62
2022/08/31 11:48:52;;;;;;;9.73;3.92;;;24.40;61.40;;;;;;4985126;28;20122;-62
2022/08/31 11:51:39;;;;;;;12.50;3.92;;;24.50;61.10;;;;;;4985131;28;20031;-62
2022/08/31 11:54:25;;;;;;;10.77;3.30;;;24.50;60.90;;;;;;4961653;28;20403;-62
2022/08/31 11:56:53;;;;;;;12.85;3.65;;;24.50;61.00;;;;;;4963744;28;20030;-62
2022/08/31 11:59:19;;;;;;;10.48;3.20;;;24.50;61.10;;;;;;4965985;28;20042;-62
2022/08/31 12:01:44;;;;;;;10.27;3.40;;;24.60;60.80;;;;;;4984487;28;20550;-62
2022/08/31 12:04:44;;;;;;;9.68;3.40;;;24.60;60.90;;;;;;4960228;28;20037;-62
2022/08/31 12:07:17;;;;;;;12.05;3.40;;;24.60;60.70;;;;;;4982587;28;20027;-62
2022/08/31 12:10:00;;;;;;;11.00;3.53;;;24.60;60.80;;;;;;4971422;28;20117;-61
2022/08/31 12:12:54;;;;;;;11.77;3.40;;;24.70;60.90;;;;;;4993568;28;20408;-62
2022/08/31 12:15:41;;;;;;;10.48;3.42;;;24.80;60.80;;;;;;5029733;28;20029;-60
2022/08/31 12:18:29;;;;;;;11.75;3.47;;;24.80;60.80;;;;;;5031511;28;20033;-62
2022/08/31 12:24:01;;;;;;;9.68;3.63;;;24.90;60.60;;;;;;5027463;28;20432;-62
2022/08/31 12:26:52;;;;;;;11.00;3.50;;;25.00;60.50;;;;;;5029249;28;20032;-62
2022/08/31 12:29:20;;;;;;;9.20;3.40;;;24.90;60.60;;;;;;5024008;28;20052;-62
2022/08/31 12:32:10;;;;;;;9.90;3.25;;;25.00;60.60;;;;;;5026776;28;20025;-62
2022/08/31 12:34:38;;;;;;;9.68;3.40;;;25.00;60.50;;;;;;5023884;28;20556;-63
2022/08/31 12:37:22;;;;;;;9.88;3.70;;;25.00;60.50;;;;;;5009218;28;20030;-62
2022/08/31 12:39:48;;;;;;;10.13;3.65;;;25.00;60.60;;;;;;5028149;28;20095;-64
2022/08/31 12:42:14;;;;;;;12.50;3.50;;;25.00;60.50;;;;;;5023815;28;20501;-64
2022/08/31 12:44:49;;;;;;;9.55;3.13;;;25.10;60.50;;;;;;5026775;28;20143;-60
2022/08/31 12:47:18;;;;;;;10.00;3.30;;;25.20;60.60;;;;;;5027964;28;20105;-60
2022/08/31 12:49:59;;;;;;;9.10;3.38;;;25.20;60.50;;;;;;5028318;28;20018;-60
2022/08/31 12:52:36;;;;;;;9.27;3.38;;;25.20;60.30;;;;;;5028840;28;20038;-59
2022/08/31 12:55:19;;;;;;;10.40;3.30;;;25.20;60.30;;;;;;5025395;28;20045;-60
2022/08/31 12:58:16;;;;;;;9.93;3.15;;;25.30;60.30;;;;;;5024735;28;20018;-60
2022/08/31 13:00:42;;;;;;;14.68;3.65;;;25.20;60.00;;;;;;5023650;28;20237;-60
2022/08/31 13:03:19;;;;;;;9.75;3.20;;;25.20;60.10;;;;;;5017780;28;20068;-59
2022/08/31 13:05:59;;;;;;;8.60;3.50;;;25.30;60.10;;;;;;5024020;28;20026;-59
2022/08/31 13:08:25;;;;;;;12.15;3.40;;;25.30;60.00;;;;;;5028390;28;20049;-60
2022/08/31 13:10:51;;;;;;;12.85;3.42;;;25.40;60.00;;;;;;5025171;28;20049;-59
2022/08/31 13:13:23;;;;;;;14.88;3.58;;;25.40;60.90;;;;;;5028921;28;20564;-59
2022/08/31 13:15:49;;;;;;;9.75;3.30;;;25.40;61.90;;;;;;5026889;28;20417;-59
2022/08/31 13:18:22;;;;;;;15.38;3.55;;;25.40;60.60;;;;;;5027288;28;20029;-59